Time;durP1;ratioP1;P1;durP2;ratioP2;P2;SDS_P1;SDS_P2;PMS_P1;PMS_P2;Temp;Humidity;BMP_temperature;BMP_pressure;BME280_temperature;BME280_humidity;BME280_pressure;Samples;Min_cycle;Max_cycle;Signal;HPM_P1;HPM_P2
2021/09/16 00:02:02;;;;;;;3.08;1.00;;;15.40;99.90;;;13.90;88.52;101103.56;2567714;30;137879;-46
2021/09/16 00:04:32;;;;;;;1.10;0.65;;;15.40;99.90;;;13.87;89.06;101106.75;2568462;30;139084;-45
2021/09/16 00:07:00;;;;;;;4.85;0.70;;;15.40;99.90;;;13.82;89.40;101101.97;2567687;30;136758;-45
2021/09/16 00:09:27;;;;;;;2.63;0.93;;;15.30;99.90;;;13.75;90.16;101106.66;2567415;30;137977;-47
2021/09/16 00:11:55;;;;;;;2.47;0.77;;;15.20;99.90;;;13.63;90.17;101104.69;2568332;30;137705;-45
2021/09/16 00:14:24;;;;;;;1.13;0.60;;;15.10;99.90;;;13.60;90.39;101107.88;2565901;30;138540;-45
2021/09/16 00:16:51;;;;;;;1.58;0.75;;;15.10;99.90;;;13.51;90.97;101104.59;2567266;30;136677;-44
2021/09/16 00:19:19;;;;;;;2.20;0.65;;;15.00;99.90;;;13.44;90.48;101102.97;2565250;30;138680;-45
2021/09/16 00:21:46;;;;;;;1.90;0.80;;;14.90;99.90;;;13.33;90.83;101099.03;2567687;30;136925;-47
2021/09/16 00:24:17;;;;;;;2.63;1.08;;;14.80;99.90;;;13.23;90.54;101108.59;2567174;30;137011;-44
2021/09/16 00:26:45;;;;;;;2.63;0.95;;;14.70;99.90;;;13.13;90.91;101102.78;2567878;30;137788;-45
2021/09/16 00:29:14;;;;;;;2.40;0.70;;;14.70;99.90;;;13.04;90.97;101107.69;2567233;30;139415;-45
2021/09/16 00:31:41;;;;;;;2.83;0.80;;;14.60;99.90;;;12.97;90.87;101106.06;2565989;30;136858;-45
2021/09/16 00:34:09;;;;;;;4.43;0.85;;;14.50;99.90;;;12.89;90.98;101110.75;2567137;30;137564;-45
2021/09/16 00:36:37;;;;;;;5.35;0.95;;;14.40;99.90;;;12.81;90.96;101108.25;2565646;30;137480;-45
2021/09/16 00:39:06;;;;;;;1.55;0.60;;;14.30;99.90;;;12.73;90.98;101108.53;2567792;30;137161;-44
2021/09/16 00:41:33;;;;;;;1.88;0.73;;;14.20;99.90;;;12.67;91.30;101112.97;2567084;30;137253;-45
2021/09/16 00:44:01;;;;;;;4.18;1.00;;;14.20;99.90;;;12.62;91.25;101115.53;2566541;30;136653;-45
2021/09/16 00:46:29;;;;;;;1.98;0.73;;;14.10;99.90;;;12.55;91.69;101109.28;2566971;30;136863;-45
2021/09/16 00:48:56;;;;;;;2.25;0.65;;;14.10;99.90;;;12.47;91.76;101116.69;2565951;30;138820;-45
2021/09/16 00:51:24;;;;;;;3.33;0.80;;;14.00;99.90;;;12.41;92.21;101111.25;2567430;30;138594;-45
2021/09/16 00:53:55;;;;;;;2.58;0.77;;;13.90;99.90;;;12.35;92.32;101116.53;2567604;30;138290;-45
2021/09/16 00:56:24;;;;;;;1.25;0.70;;;13.90;99.90;;;12.29;92.32;101111.06;2567741;30;136898;-45
2021/09/16 00:58:53;;;;;;;1.75;0.50;;;13.80;99.90;;;12.21;92.71;101104.81;2567509;30;138682;-45
2021/09/16 01:01:22;;;;;;;1.77;0.90;;;13.80;99.90;;;12.16;92.81;101112.78;2567821;30;137491;-44
2021/09/16 01:03:50;;;;;;;1.08;0.60;;;13.70;99.90;;;12.08;92.75;101111.16;2567191;30;137317;-45
2021/09/16 01:06:17;;;;;;;3.80;0.80;;;13.60;99.90;;;11.81;92.54;101074.81;2580327;30;137723;-45
2021/09/16 01:08:45;;;;;;;0.80;0.50;;;13.60;99.90;;;12.01;92.69;101112.22;2569399;30;138252;-45
2021/09/16 01:11:13;;;;;;;1.38;0.60;;;13.50;99.90;;;11.94;92.86;101109.47;2569036;30;137621;-44
2021/09/16 01:13:43;;;;;;;2.80;0.70;;;13.50;99.90;;;11.87;93.32;101109.50;2570754;30;138453;-48
2021/09/16 01:16:10;;;;;;;7.13;0.77;;;13.40;99.90;;;11.81;93.32;101107.63;2570171;30;137572;-45
2021/09/16 01:18:38;;;;;;;3.15;0.80;;;13.40;99.90;;;11.77;93.53;101112.66;2571978;30;138713;-43
2021/09/16 01:21:07;;;;;;;3.88;0.60;;;13.30;99.90;;;11.70;93.60;101120.03;2567558;30;137016;-45
2021/09/16 01:23:34;;;;;;;3.08;0.80;;;13.20;99.90;;;11.64;93.80;101121.72;2570640;30;138374;-44
2021/09/16 01:26:02;;;;;;;1.70;0.60;;;13.20;99.90;;;11.60;93.73;101125.94;2570123;30;137504;-45
2021/09/16 01:28:29;;;;;;;2.90;0.68;;;13.10;99.90;;;11.59;93.81;101123.44;2569959;30;139314;-45
2021/09/16 01:30:57;;;;;;;3.58;0.70;;;13.10;99.90;;;11.61;94.25;101129.53;2570450;30;136839;-45
2021/09/16 01:33:25;;;;;;;3.97;0.80;;;13.10;99.90;;;11.62;94.89;101131.22;2570576;30;137449;-47
2021/09/16 01:35:52;;;;;;;1.83;0.73;;;13.10;99.90;;;11.63;95.41;101128.25;2568176;30;138244;-46
2021/09/16 01:38:20;;;;;;;4.50;0.98;;;13.10;99.90;;;11.66;95.91;101118.78;2569210;30;138235;-46
2021/09/16 01:40:47;;;;;;;3.47;0.90;;;13.10;99.90;;;11.69;95.90;101129.28;2568337;30;137321;-47
2021/09/16 01:43:16;;;;;;;1.73;0.82;;;13.20;99.90;;;11.72;96.49;101133.50;2569545;30;138137;-46
2021/09/16 01:45:43;;;;;;;3.42;0.85;;;13.20;99.90;;;11.70;96.87;101130.16;2570418;30;137172;-46
2021/09/16 01:48:11;;;;;;;2.20;0.90;;;13.20;99.90;;;11.64;96.85;101129.09;2571216;30;138314;-47
2021/09/16 01:50:38;;;;;;;2.03;0.80;;;13.20;99.90;;;11.64;97.29;101132.66;2571013;30;136818;-50
2021/09/16 01:53:06;;;;;;;5.25;1.10;;;13.10;99.90;;;11.62;96.86;101144.88;2568871;30;138641;-46
2021/09/16 01:55:33;;;;;;;4.25;0.88;;;13.20;99.90;;;11.56;96.75;101146.53;2571462;30;136590;-46
2021/09/16 01:58:04;;;;;;;3.42;0.80;;;13.10;99.90;;;11.51;96.16;101141.72;2569071;30;138272;-48
2021/09/16 02:00:32;;;;;;;4.47;1.15;;;13.10;99.90;;;11.45;96.34;101149.94;2567737;30;137560;-47
2021/09/16 02:02:59;;;;;;;4.28;0.80;;;13.00;99.90;;;11.36;96.10;101147.38;2570674;30;138974;-47
2021/09/16 02:05:27;;;;;;;1.65;0.90;;;12.90;99.90;;;11.32;96.13;101156.22;2569716;30;138297;-46
2021/09/16 02:07:54;;;;;;;2.08;0.80;;;12.80;99.90;;;11.25;96.08;101147.16;2569552;30;137224;-47
2021/09/16 02:10:22;;;;;;;2.67;0.80;;;12.90;99.90;;;11.23;96.12;101153.69;2568931;30;137220;-44
2021/09/16 02:12:50;;;;;;;2.60;0.90;;;12.80;99.90;;;11.21;95.73;101166.72;2568984;30;137699;-45
2021/09/16 02:15:17;;;;;;;1.83;0.93;;;12.80;99.90;;;11.17;95.75;101165.44;2567205;30;137458;-44
2021/09/16 02:17:44;;;;;;;2.20;0.70;;;12.70;99.90;;;11.14;95.70;101165.00;2570330;30;138242;-46
2021/09/16 02:20:13;;;;;;;2.55;0.90;;;12.70;99.90;;;11.08;95.97;101156.59;2569817;30;137446;-46
2021/09/16 02:22:41;;;;;;;2.53;0.85;;;12.70;99.90;;;11.05;95.68;101161.66;2569461;30;137272;-44
2021/09/16 02:25:10;;;;;;;2.03;1.00;;;12.60;99.90;;;11.03;96.13;101180.13;2570692;30;137721;-47
2021/09/16 02:27:37;;;;;;;2.42;1.10;;;12.60;99.90;;;10.96;95.74;101162.88;2571246;30;138382;-48
2021/09/16 02:30:06;;;;;;;4.03;1.00;;;12.60;99.90;;;10.96;95.44;101171.94;2567085;38;137264;-47
2021/09/16 02:32:34;;;;;;;2.92;1.05;;;12.50;99.90;;;10.93;95.83;101175.91;2569568;30;138423;-46
2021/09/16 02:35:02;;;;;;;2.22;0.93;;;12.50;99.90;;;10.97;96.36;101186.41;2569140;30;138374;-46
2021/09/16 02:37:29;;;;;;;4.30;0.95;;;12.50;99.90;;;10.94;96.42;101180.31;2566618;30;138304;-46
2021/09/16 02:39:57;;;;;;;;;;;12.50;99.90;;;10.94;96.68;101169.41;2568678;30;136921;-44
2021/09/16 02:42:25;;;;;;;3.22;1.17;;;12.50;99.90;;;10.93;96.31;101175.06;2570553;30;137786;-46
2021/09/16 02:44:52;;;;;;;4.22;1.20;;;12.50;99.90;;;10.89;96.14;101174.63;2569108;30;136808;-45
2021/09/16 02:47:20;;;;;;;4.50;1.20;;;12.40;99.90;;;10.94;96.71;101177.59;2568768;30;137289;-47
2021/09/16 02:49:47;;;;;;;2.67;1.13;;;12.50;99.90;;;10.99;97.43;101187.03;2570016;30;137342;-49
2021/09/16 02:52:15;;;;;;;2.65;1.02;;;12.50;99.90;;;10.94;97.08;101180.31;2570384;30;138224;-47
2021/09/16 02:54:43;;;;;;;2.35;1.10;;;12.50;99.90;;;10.90;97.28;101186.41;2570051;30;138788;-47
2021/09/16 02:57:10;;;;;;;2.53;1.10;;;12.40;99.90;;;10.84;97.57;101192.66;2568602;30;137904;-48
2021/09/16 02:59:38;;;;;;;2.15;1.13;;;12.40;99.90;;;10.80;97.29;101186.78;2569568;30;137046;-47
2021/09/16 03:02:06;;;;;;;3.88;1.20;;;12.40;99.90;;;10.76;97.59;101189.09;2567800;30;137357;-48
2021/09/16 03:04:33;;;;;;;;;;;12.30;99.90;;;10.75;97.52;101187.41;2569290;30;137922;-46
2021/09/16 03:07:01;;;;;;;4.03;1.10;;;12.30;99.90;;;10.78;97.90;101197.91;2568690;30;138791;-47
2021/09/16 03:09:28;;;;;;;3.30;1.27;;;12.30;99.90;;;10.75;97.56;101201.06;2569393;30;138226;-46
2021/09/16 03:11:55;;;;;;;2.95;1.17;;;12.30;99.90;;;10.75;97.87;101194.75;2569300;30;137480;-44
2021/09/16 03:14:23;;;;;;;1.90;1.10;;;12.30;99.90;;;10.73;98.14;101199.56;2570601;30;137283;-44
2021/09/16 03:16:51;;;;;;;3.15;1.17;;;12.30;99.90;;;10.68;98.27;101193.88;2569146;30;139093;-45
2021/09/16 03:19:18;;;;;;;2.67;1.38;;;12.30;99.90;;;10.65;98.44;101193.25;2570462;30;136790;-48
2021/09/16 03:21:46;;;;;;;2.22;1.10;;;12.20;99.90;;;10.64;98.52;101188.00;2569994;30;137552;-46
2021/09/16 03:24:14;;;;;;;4.43;1.65;;;12.20;99.90;;;10.62;98.55;101190.09;2567157;30;136801;-47
2021/09/16 03:26:41;;;;;;;3.63;1.45;;;12.20;99.90;;;10.60;98.55;101193.03;2568037;30;137347;-48
2021/09/16 03:29:09;;;;;;;4.30;1.30;;;12.20;99.90;;;10.57;98.62;101187.13;2568736;30;137250;-47
2021/09/16 03:31:36;;;;;;;2.42;1.40;;;12.10;99.90;;;10.57;98.89;101187.13;2568878;30;138373;-49
2021/09/16 03:34:04;;;;;;;6.70;1.55;;;12.10;99.90;;;10.53;98.89;101183.97;2569958;30;136730;-48
2021/09/16 03:36:31;;;;;;;3.45;1.48;;;12.10;99.90;;;10.50;98.93;101176.19;2568020;30;137223;-47
2021/09/16 03:38:59;;;;;;;3.75;1.38;;;12.10;99.90;;;10.49;98.68;101190.88;2569394;30;137090;-47
2021/09/16 03:41:27;;;;;;;;;;;12.10;99.90;;;10.46;98.83;101186.66;2568660;30;138358;-46
2021/09/16 03:43:54;;;;;;;5.45;1.50;;;12.10;99.90;;;10.47;98.92;101187.50;2567923;30;138478;-46
2021/09/16 03:46:22;;;;;;;3.35;1.50;;;12.10;99.90;;;10.47;99.28;101185.63;2569291;30;139280;-49
2021/09/16 03:48:49;;;;;;;3.15;1.50;;;12.00;99.90;;;10.50;99.18;101190.66;2569196;30;136954;-47
2021/09/16 03:51:17;;;;;;;5.50;1.92;;;12.00;99.90;;;10.49;99.06;101185.44;2569287;30;137366;-46
2021/09/16 03:53:44;;;;;;;4.18;1.90;;;12.10;99.90;;;10.54;99.20;101193.84;2569934;30;137374;-46
2021/09/16 03:56:12;;;;;;;5.20;1.88;;;12.10;99.90;;;10.59;100.00;101187.75;2567465;30;139389;-46
2021/09/16 03:58:40;;;;;;;8.88;2.95;;;12.10;99.90;;;10.61;100.00;101185.69;2569682;30;136914;-46
2021/09/16 04:01:08;;;;;;;6.60;2.50;;;12.10;99.90;;;10.66;100.00;101183.19;2567204;30;138488;-47
2021/09/16 04:03:36;;;;;;;5.35;2.47;;;12.20;99.90;;;10.75;100.00;101181.94;2567815;30;137363;-46
2021/09/16 04:06:03;;;;;;;5.57;2.65;;;12.20;99.90;;;10.76;100.00;101182.81;2569532;30;138255;-46
2021/09/16 04:08:31;;;;;;;5.07;2.58;;;12.20;99.90;;;10.77;100.00;101181.75;2570262;30;137745;-48
2021/09/16 04:10:59;;;;;;;6.43;2.38;;;12.30;99.90;;;10.71;100.00;101194.31;2568717;30;137506;-45
2021/09/16 04:13:26;;;;;;;4.75;2.28;;;12.30;99.90;;;10.67;100.00;101200.38;2567870;30;139386;-47
2021/09/16 04:15:54;;;;;;;5.00;2.53;;;12.20;99.90;;;10.60;100.00;101190.28;2567503;30;138964;-46
2021/09/16 04:18:21;;;;;;;5.70;2.60;;;12.20;99.90;;;10.60;100.00;101193.03;2571169;30;137225;-48
2021/09/16 04:20:49;;;;;;;4.97;2.38;;;12.20;99.90;;;10.48;100.00;101179.13;2569472;30;137331;-46
2021/09/16 04:23:16;;;;;;;5.78;2.83;;;12.10;99.90;;;10.52;100.00;101193.19;2570608;30;138203;-47
2021/09/16 04:25:44;;;;;;;4.40;2.47;;;12.10;99.90;;;10.56;100.00;101194.47;2568232;30;138894;-46
2021/09/16 04:28:12;;;;;;;5.57;2.30;;;12.10;99.90;;;10.52;100.00;101195.06;2567247;30;137545;-48
2021/09/16 04:30:39;;;;;;;5.78;2.63;;;12.10;99.90;;;10.50;100.00;101192.56;2570009;30;138560;-47
2021/09/16 04:33:07;;;;;;;4.38;2.33;;;12.10;99.90;;;10.44;100.00;101191.47;2568576;30;138010;-46
2021/09/16 04:35:35;;;;;;;4.65;2.30;;;12.00;99.90;;;10.42;100.00;101193.56;2569111;30;138147;-46
2021/09/16 04:38:02;;;;;;;6.30;2.65;;;12.00;99.90;;;10.45;100.00;101189.59;2569350;30;137428;-49
2021/09/16 04:40:30;;;;;;;6.45;2.92;;;12.00;99.90;;;10.45;100.00;101192.31;2570668;30;138530;-47
2021/09/16 04:42:57;;;;;;;5.28;2.55;;;12.00;99.90;;;10.43;100.00;101180.75;2569658;30;137401;-45
2021/09/16 04:45:25;;;;;;;5.20;2.65;;;12.00;99.90;;;10.40;100.00;101192.06;2569260;30;139067;-47
2021/09/16 04:47:52;;;;;;;7.38;3.03;;;11.90;99.90;;;10.37;100.00;101193.31;2568074;30;137743;-47
2021/09/16 04:50:20;;;;;;;4.65;2.50;;;11.90;99.90;;;10.35;100.00;101193.50;2569937;30;139410;-47
2021/09/16 04:52:48;;;;;;;6.00;2.97;;;11.90;99.90;;;10.32;100.00;101199.38;2569877;30;137377;-47
2021/09/16 04:55:15;;;;;;;4.80;2.42;;;11.90;99.90;;;10.31;100.00;101203.13;2567399;30;138266;-47
2021/09/16 04:57:43;;;;;;;5.75;2.53;;;11.90;99.90;;;10.33;100.00;101213.81;2568586;30;137660;-46
2021/09/16 05:00:11;;;;;;;5.05;2.40;;;11.90;99.90;;;10.37;100.00;101209.69;2569615;30;136732;-46
2021/09/16 05:02:39;;;;;;;7.00;2.75;;;11.90;99.90;;;10.46;100.00;101208.50;2568520;30;136729;-47
2021/09/16 05:05:07;;;;;;;5.90;3.28;;;12.00;99.90;;;10.65;100.00;101200.59;2565835;30;137796;-46
2021/09/16 05:07:35;;;;;;;6.68;3.38;;;12.00;99.90;;;10.74;100.00;101199.38;2569431;30;138504;-46
2021/09/16 05:10:04;;;;;;;8.82;3.03;;;12.20;99.90;;;10.87;100.00;101197.72;2568454;30;137831;-46
2021/09/16 05:12:32;;;;;;;8.63;3.33;;;12.30;99.90;;;10.99;100.00;101208.88;2568241;30;137614;-47
2021/09/16 05:15:00;;;;;;;6.18;3.63;;;12.40;99.90;;;11.13;100.00;101212.47;2567717;30;138504;-46
2021/09/16 05:17:27;;;;;;;5.80;2.90;;;12.50;99.90;;;11.16;100.00;101210.19;2568282;30;137050;-46
2021/09/16 05:19:55;;;;;;;7.75;3.53;;;12.60;99.90;;;11.22;100.00;101214.00;2568484;30;137622;-46
2021/09/16 05:22:22;;;;;;;7.10;3.65;;;12.60;99.90;;;11.31;100.00;101220.09;2571556;30;136601;-46
2021/09/16 05:24:50;;;;;;;6.15;3.38;;;12.70;99.90;;;11.44;100.00;101224.75;2566857;30;138196;-47
2021/09/16 05:27:19;;;;;;;7.53;3.70;;;12.80;99.90;;;11.47;100.00;101216.94;2569589;30;137710;-46
2021/09/16 05:29:47;;;;;;;6.45;3.42;;;12.90;99.90;;;11.59;100.00;101214.44;2567782;30;138145;-47
2021/09/16 05:32:14;;;;;;;9.45;4.30;;;13.00;99.90;;;11.64;100.00;101214.66;2568452;30;136818;-49
2021/09/16 05:34:42;;;;;;;8.45;3.80;;;13.00;99.90;;;11.73;100.00;101222.66;2566987;30;139350;-46
2021/09/16 05:37:10;;;;;;;7.30;3.70;;;13.10;99.90;;;11.76;100.00;101216.75;2569009;30;137437;-46
2021/09/16 05:39:37;;;;;;;7.80;3.80;;;13.20;99.90;;;11.82;100.00;101218.66;2571682;30;139071;-46
2021/09/16 05:42:05;;;;;;;6.57;3.38;;;13.20;99.90;;;11.90;100.00;101217.59;2566738;30;137589;-46
2021/09/16 05:44:33;;;;;;;;;;;13.30;99.90;;;11.92;100.00;101229.97;2570448;30;137560;-46
2021/09/16 05:47:00;;;;;;;7.55;3.70;;;13.30;99.90;;;11.98;100.00;101228.31;2569081;30;137354;-46
2021/09/16 05:49:28;;;;;;;7.82;3.65;;;13.40;99.90;;;12.02;100.00;101228.75;2570771;30;137683;-47
2021/09/16 05:51:55;;;;;;;9.15;3.50;;;13.40;99.90;;;12.11;100.00;101240.31;2567349;30;137543;-46
2021/09/16 05:54:23;;;;;;;5.65;3.25;;;13.50;99.90;;;12.14;100.00;101242.63;2570926;30;138411;-48
2021/09/16 05:56:51;;;;;;;;;;;13.50;99.90;;;12.20;100.00;101244.50;2571114;30;138192;-48
2021/09/16 05:59:18;;;;;;;7.70;3.42;;;13.60;99.90;;;12.29;100.00;101243.22;2572009;30;137420;-47
2021/09/16 06:01:46;;;;;;;5.95;3.45;;;13.60;99.90;;;12.21;100.00;101233.38;2568646;30;136857;-47
2021/09/16 06:04:13;;;;;;;8.45;3.90;;;13.70;99.90;;;12.33;100.00;101243.63;2569560;30;139144;-44
2021/09/16 06:06:41;;;;;;;9.70;4.68;;;13.70;99.90;;;12.45;100.00;101247.38;2569593;30;138893;-46
2021/09/16 06:09:08;;;;;;;9.77;4.45;;;13.70;99.90;;;12.46;100.00;101243.59;2568785;30;137399;-45
2021/09/16 06:11:36;;;;;;;9.43;4.32;;;13.80;99.90;;;12.47;100.00;101245.31;2569602;30;137811;-45
2021/09/16 06:14:03;;;;;;;10.82;5.13;;;13.80;99.90;;;12.53;100.00;101238.09;2569680;30;139171;-46
2021/09/16 06:16:31;;;;;;;12.82;4.97;;;13.90;99.90;;;12.59;100.00;101250.09;2568819;30;137568;-48
2021/09/16 06:18:58;;;;;;;10.68;4.38;;;13.90;99.90;;;12.64;100.00;101240.19;2569798;30;139128;-45
2021/09/16 06:21:26;;;;;;;8.77;4.95;;;14.00;99.90;;;12.77;100.00;101246.66;2570197;30;138209;-45
2021/09/16 06:23:54;;;;;;;11.32;5.15;;;14.00;99.90;;;12.83;100.00;101243.03;2570123;30;138159;-47
2021/09/16 06:26:22;;;;;;;11.45;5.22;;;14.10;99.90;;;12.87;100.00;101244.31;2568411;30;137117;-48
2021/09/16 06:28:50;;;;;;;11.48;5.28;;;14.10;99.90;;;12.94;100.00;101252.47;2570542;30;137128;-46
2021/09/16 06:31:17;;;;;;;12.98;6.00;;;14.20;99.90;;;13.01;100.00;101255.19;2568886;30;137638;-47
2021/09/16 06:33:45;;;;;;;11.35;5.55;;;14.30;99.90;;;13.08;99.89;101253.25;2570544;30;137881;-47
2021/09/16 06:36:12;;;;;;;10.45;5.30;;;14.30;99.90;;;13.15;99.35;101253.22;2569029;30;137586;-46
2021/09/16 06:38:40;;;;;;;9.60;5.35;;;14.40;99.90;;;13.21;99.18;101255.94;2570089;30;138419;-46
2021/09/16 06:41:08;;;;;;;7.82;4.90;;;14.50;99.90;;;13.26;99.05;101257.16;2565020;30;137706;-47
2021/09/16 06:43:35;;;;;;;11.02;5.45;;;14.50;99.90;;;13.33;99.09;101253.31;2568733;30;139058;-46
2021/09/16 06:46:03;;;;;;;10.10;4.88;;;14.60;99.90;;;13.40;98.10;101252.44;2566576;30;138898;-47
2021/09/16 06:48:30;;;;;;;12.63;5.28;;;14.70;99.90;;;13.46;98.36;101248.84;2568348;30;137930;-47
2021/09/16 06:50:58;;;;;;;11.02;5.45;;;14.70;99.90;;;13.51;98.19;101258.09;2568802;30;137372;-47
2021/09/16 06:53:26;;;;;;;10.52;5.72;;;14.80;99.90;;;13.56;98.01;101260.16;2570992;30;139057;-45
2021/09/16 06:55:54;;;;;;;;;;;14.80;99.90;;;13.61;97.91;101262.22;2571096;30;137412;-47
2021/09/16 06:58:21;;;;;;;11.20;5.85;;;14.90;99.90;;;13.64;96.46;101259.88;2566512;30;139771;-47
2021/09/16 07:00:49;;;;;;;10.77;5.55;;;14.90;99.90;;;13.73;95.77;101265.94;2569164;30;137514;-48
2021/09/16 07:03:17;;;;;;;10.63;6.00;;;15.00;99.90;;;13.83;95.68;101262.72;2568797;30;138392;-47
2021/09/16 07:05:44;;;;;;;10.63;5.85;;;15.00;99.90;;;13.89;95.99;101267.28;2569152;30;137157;-49
2021/09/16 07:08:12;;;;;;;11.73;6.15;;;15.10;99.90;;;13.95;96.01;101260.91;2571012;30;138636;-44
2021/09/16 07:10:41;;;;;;;11.60;6.47;;;15.10;99.90;;;14.05;94.99;101262.28;2568115;30;137651;-45
2021/09/16 07:13:08;;;;;;;11.60;5.57;;;15.30;99.90;;;14.12;95.06;101265.81;2567471;30;137466;-45
2021/09/16 07:15:36;;;;;;;9.40;4.95;;;15.30;99.90;;;14.18;95.04;101275.88;2567880;30;138266;-44
2021/09/16 07:18:04;;;;;;;9.60;6.05;;;15.40;99.90;;;14.27;94.07;101272.84;2567668;30;137311;-44
2021/09/16 07:20:32;;;;;;;11.27;5.75;;;15.40;99.90;;;14.36;94.67;101282.50;2567759;30;137530;-45
2021/09/16 07:23:02;;;;;;;11.38;5.63;;;15.50;99.90;;;14.45;93.44;101275.63;2568148;30;138544;-46
2021/09/16 07:25:30;;;;;;;9.18;5.35;;;15.60;99.90;;;14.50;92.75;101278.50;2568217;30;137346;-45
2021/09/16 07:27:57;;;;;;;12.43;5.53;;;15.70;99.90;;;14.65;93.76;101277.31;2569357;30;137185;-44
2021/09/16 07:30:25;;;;;;;12.13;5.65;;;15.80;99.90;;;14.70;91.94;101282.94;2566030;30;137427;-44
2021/09/16 07:32:52;;;;;;;12.77;6.07;;;15.90;99.90;;;14.79;91.60;101281.59;2567354;30;137262;-45
2021/09/16 07:35:21;;;;;;;10.98;5.28;;;15.90;99.90;;;14.84;91.46;101286.41;2568151;30;137765;-44
2021/09/16 07:37:49;;;;;;;9.80;5.15;;;16.00;99.90;;;14.91;91.15;101284.41;2568542;30;138326;-46
2021/09/16 07:40:16;;;;;;;7.95;5.22;;;16.00;99.90;;;15.08;91.50;101279.13;2567633;30;137612;-47
2021/09/16 07:42:44;;;;;;;11.23;5.65;;;16.10;99.90;;;15.21;90.73;101293.78;2567196;30;137947;-44
2021/09/16 07:45:12;;;;;;;11.15;5.55;;;16.20;99.90;;;15.37;90.39;101282.09;2566955;30;138332;-45
2021/09/16 07:47:39;;;;;;;10.65;5.35;;;16.40;99.90;;;15.46;88.20;101282.63;2568059;30;138281;-48
2021/09/16 07:50:08;;;;;;;13.00;5.75;;;16.50;99.90;;;15.57;88.56;101288.41;2567205;30;137576;-44
2021/09/16 07:52:36;;;;;;;10.05;5.60;;;16.60;99.90;;;15.62;87.13;101292.09;2566365;30;137196;-44
2021/09/16 07:55:05;;;;;;;9.85;5.55;;;16.70;99.90;;;15.72;88.25;101298.97;2564728;30;137124;-44
2021/09/16 07:57:33;;;;;;;9.65;5.25;;;16.70;99.90;;;15.80;87.18;101301.38;2567716;30;137479;-45
2021/09/16 08:00:00;;;;;;;;;;;16.90;99.90;;;15.89;86.38;101299.16;2569140;30;137608;-44
2021/09/16 08:02:49;;;;;;;11.73;5.07;;;16.90;99.90;;;15.93;85.11;101309.44;2566684;30;137409;-44
2021/09/16 08:05:18;;;;;;;9.50;4.95;;;17.00;99.90;;;16.00;84.97;101306.56;2567647;30;137166;-44
2021/09/16 08:07:46;;;;;;;8.25;4.57;;;17.00;99.90;;;16.05;84.76;101305.88;2567324;30;139246;-46
2021/09/16 08:10:14;;;;;;;7.95;3.90;;;17.10;99.90;;;16.08;84.08;101305.38;2568017;30;137824;-49
2021/09/16 08:12:42;;;;;;;8.27;3.92;;;17.20;99.90;;;16.14;84.12;101306.34;2568505;30;137249;-46
2021/09/16 08:15:11;;;;;;;6.95;3.78;;;17.20;99.90;;;16.23;86.24;101303.00;2566115;30;137227;-44
2021/09/16 08:17:39;;;;;;;8.68;3.88;;;17.30;99.90;;;16.34;84.46;101311.50;2568475;30;137224;-47
2021/09/16 08:20:08;;;;;;;9.05;3.63;;;17.30;99.90;;;16.49;81.79;101311.88;2565829;30;137325;-44
2021/09/16 08:22:36;;;;;;;7.78;4.05;;;17.50;99.90;;;16.65;83.00;101312.19;2567252;30;137820;-43
2021/09/16 08:25:09;;;;;;;9.75;3.95;;;17.60;99.90;;;16.82;79.68;101317.78;2567053;30;138874;-44
2021/09/16 08:27:37;;;;;;;6.85;3.47;;;17.70;99.90;;;16.94;79.89;101318.63;2567309;30;137404;-44
2021/09/16 08:30:08;;;;;;;6.68;3.28;;;17.90;99.90;;;17.06;76.98;101315.88;2568293;30;136844;-44
2021/09/16 08:32:36;;;;;;;8.02;3.65;;;18.00;99.90;;;17.31;78.61;101320.22;2568039;30;136987;-45
2021/09/16 08:35:06;;;;;;;6.28;3.22;;;18.20;99.90;;;17.42;77.29;101312.13;2567626;30;137508;-45
2021/09/16 08:37:34;;;;;;;5.93;3.30;;;18.30;99.90;;;17.44;75.68;101319.09;2566744;30;138117;-45
2021/09/16 08:40:04;;;;;;;7.25;3.17;;;18.40;99.90;;;17.46;75.33;101314.16;2568467;30;137526;-44
2021/09/16 08:42:36;;;;;;;8.10;3.47;;;18.50;99.90;;;17.48;75.74;101308.38;2567420;30;139313;-45
2021/09/16 08:45:06;;;;;;;6.50;3.03;;;18.50;99.90;;;17.49;77.49;101305.38;2567943;30;136928;-49
2021/09/16 08:47:37;;;;;;;6.47;2.80;;;18.50;99.90;;;17.47;75.41;101303.94;2568016;30;139443;-45
2021/09/16 08:50:06;;;;;;;8.48;3.53;;;18.50;99.90;;;17.46;74.85;101305.88;2567182;30;138130;-44
2021/09/16 08:52:37;;;;;;;6.53;3.10;;;18.50;99.90;;;17.48;75.95;101308.38;2566296;30;138418;-45
2021/09/16 08:55:09;;;;;;;5.82;2.78;;;18.50;99.90;;;17.36;74.22;101306.53;2564202;30;137299;-45
2021/09/16 08:57:40;;;;;;;5.57;2.63;;;18.50;99.90;;;17.47;75.81;101309.47;2565364;30;138803;-44
2021/09/16 09:00:19;;;;;;;4.90;2.88;;;18.40;99.90;;;17.49;76.73;101299.00;2565124;30;137672;-43
2021/09/16 09:02:50;;;;;;;6.40;2.50;;;18.50;99.90;;;17.53;76.08;101309.31;2567995;30;139284;-49
2021/09/16 09:05:19;;;;;;;5.32;2.80;;;18.50;99.90;;;17.56;75.41;101305.25;2567813;30;137627;-45
2021/09/16 09:07:51;;;;;;;7.35;3.10;;;18.60;99.90;;;17.85;75.49;101299.66;2567774;30;138105;-45
2021/09/16 09:10:48;;;;;;;7.05;2.85;;;18.70;99.90;;;18.00;74.08;101312.88;2567935;30;136643;-49
2021/09/16 09:13:35;;;;;;;6.35;2.35;;;18.90;99.90;;;18.06;73.99;101306.38;2567679;30;137170;-44
2021/09/16 09:16:08;;;;;;;5.72;2.20;;;19.00;99.90;;;18.34;72.09;101312.06;2567541;30;136745;-44
2021/09/16 09:18:51;;;;;;;5.57;1.95;;;19.10;99.90;;;18.63;71.51;101311.94;2568982;30;138152;-45
2021/09/16 09:21:19;;;;;;;5.53;1.85;;;19.40;99.90;;;18.79;68.10;101315.72;2569109;30;137620;-44
2021/09/16 09:23:54;;;;;;;;;;;19.50;99.90;;;18.95;67.19;101316.75;2569069;30;138210;-45
2021/09/16 09:26:26;;;;;;;4.47;1.80;;;19.70;99.90;;;19.13;68.43;101321.16;2568670;30;137269;-47
2021/09/16 09:29:08;;;;;;;3.80;1.52;;;19.80;99.90;;;19.21;69.19;101317.91;2568072;30;138464;-50
2021/09/16 09:32:03;;;;;;;4.60;1.85;;;20.00;99.90;;;19.13;66.22;101320.34;2568458;30;136920;-45
2021/09/16 09:34:36;;;;;;;3.50;1.50;;;20.00;99.90;;;19.12;67.99;101325.03;2569564;30;137496;-46
2021/09/16 09:37:13;;;;;;;4.70;1.52;;;20.00;99.90;;;19.24;64.32;101333.19;2567584;30;137543;-46
2021/09/16 09:39:44;;;;;;;3.47;1.38;;;20.10;99.90;;;19.35;65.53;101320.31;2568480;30;137270;-46
2021/09/16 09:42:28;;;;;;;3.75;1.60;;;20.20;99.90;;;19.57;64.65;101328.53;2568715;30;136835;-45
2021/09/16 09:45:09;;;;;;;4.38;1.08;;;20.40;99.90;;;19.80;64.63;101326.56;2567691;30;138231;-45
2021/09/16 09:47:45;;;;;;;2.97;1.40;;;20.60;99.90;;;19.79;63.28;101328.50;2568741;30;137088;-45
2021/09/16 09:50:33;;;;;;;4.93;1.67;;;20.60;99.90;;;19.72;65.92;101332.56;2567632;30;137150;-45
2021/09/16 09:53:14;;;;;;;4.35;1.48;;;20.60;99.90;;;19.73;64.13;101326.75;2569535;30;137310;-45
2021/09/16 09:55:41;;;;;;;3.45;1.33;;;20.60;99.90;;;19.65;62.68;101324.47;2567014;30;137563;-45
2021/09/16 09:58:09;;;;;;;;;;;20.60;99.90;;;19.55;63.79;101337.13;2568758;30;138355;-47
2021/09/16 10:00:37;;;;;;;5.43;1.60;;;20.50;99.90;;;19.45;66.01;101334.22;2566352;30;137150;-44
2021/09/16 10:03:06;;;;;;;4.60;1.77;;;20.40;99.90;;;19.44;66.84;101323.44;2569408;30;136842;-46
2021/09/16 10:05:43;;;;;;;4.60;1.48;;;20.40;99.90;;;19.38;66.10;101323.41;2568190;30;139103;-48
2021/09/16 10:08:13;;;;;;;2.80;1.40;;;20.40;99.90;;;19.38;67.63;101331.69;2569206;30;138780;-46
2021/09/16 10:10:49;;;;;;;3.47;1.52;;;20.40;99.90;;;19.78;66.36;101326.84;2570157;30;138170;-44
2021/09/16 10:13:18;;;;;;;4.45;1.60;;;20.50;99.90;;;20.00;64.48;101330.66;2568265;30;137516;-44